AirNav   Free SoundLink Mini II speaker
 
 406 users online  

2CD2 Medical Center of the Rockies Heliport
Loveland, Colorado, USA

GOING TO LOVELAND?


FAA INFORMATION EFFECTIVE 26 MARCH 2020

Location

FAA Identifier: 2CD2
Lat/Long: 40-25-00.1000N 104-59-45.8800W
40-25.001667N 104-59.764667W
40.4166944,-104.9960778
(estimated)
Elevation: 5010 ft. / 1527 m (estimated)
From city: 3 miles E of LOVELAND, CO
Time zone: UTC -6 (UTC -7 during Standard Time)
Zip code: 80538

Heliport Operations

Heliport use: Private use, MEDICAL USE.
Activation date: 04/2007
Control tower: no
ARTCC: DENVER CENTER
FSS: DENVER FLIGHT SERVICE STATION
Attendance: CONTINUOUS
Segmented circle: no

Heliport Communications

WX AWOS-3PT at FNL (2.2 nm N): 135.075 (970-669-9187)
WX AWOS-3PT at GXY (17 nm E): 135.175 (970-352-3511)
WX AWOS-3 at LMO (17 nm SW): 120.0 (303-684-7545)

Nearby radio navigation aids

VOR radial/distance  VOR name  Freq  Var
GLLr243/20.9GILL VOR/DME114.2013E
BJCr001/30.9JEFFCO VOR/DME115.4011E
DVVr323/35.7MILE HIGH VORTAC114.7008E
DENr329/39.4DENVER VOR/DME117.9008E

 
NDB name  Hdg/Dist  Freq  Var  ID
COLLN332/3.440009EFN ..-. -.

Heliport Services

Runway Information

Helipad H2

Dimensions: 42 x 42 ft. / 13 x 13 m
Surface: concrete
Operational restrictions: GROUND HELIPAD.
Latitude: 40-25.002000N
Longitude: 104-59.765500W
Elevation: 4976.0 ft.
Traffic pattern: leftleft

Helipad H1

Dimensions: 45 x 45 ft. / 14 x 14 m
Surface: DECK
Operational restrictions: ROOFTOP HELIPAD.
Latitude: 40-25.001667N
Longitude: 104-59.764667W
Elevation: 5010.0 ft.
Traffic pattern: leftleft

Heliport Ownership and Management from official FAA records

Ownership: Privately-owned
Owner: MEDICAL CENTER OF THE ROCKIES
2500 ROCKY MOUNTAIN AVE
LOVELAND, CO 80538
Phone 970-624-2500
Manager: DARREN BOYLE
2500 ROCKY MOUNTAIN AVE
LOVELAND, CO 80538
Phone 970-624-1050

Additional Remarks

FOR CD CTC DENVER APCH AT 303-342-1916.

Instrument Procedures

There are no published instrument procedures at 2CD2.

Some nearby airports with instrument procedures:

KFNL - Northern Colorado Regional Airport (2 nm N)
KGXY - Greeley-Weld County Airport (17 nm E)
KLMO - Vance Brand Airport (17 nm SW)
KEIK - Erie Municipal Airport (25 nm S)
KBJC - Rocky Mountain Metropolitan Airport (31 nm S)
 
Loc | Ops | Rwys | IFR | FBO | Links
Com | Nav | Svcs | Stats | Notes

AirBoss

 
Area around 2CD2 (Medical Center of the Rockies Heliport)
 
Road maps at: MapQuest Bing Google
 
Aerial photo
No photo
 
Sectional chart

 
Airport distance calculator
Flying to Medical Center of the Rockies Heliport? Find the distance to fly.

From to 2CD2

Sunrise and sunset
Times for 05-Apr-2020
 Local
(UTC-6)
 Zulu
(UTC)
Morning civil twilight06:0912:09
Sunrise06:3712:37
Sunset19:2801:28
Evening civil twilight19:5601:56

Current date and time
Zulu (UTC)  06-Apr-2020 05:53:57
Local (UTC-6)  05-Apr-2020 23:53:57
 
METAR
KFNL 
2nm NW 
060456Z 25003KT 10SM CLR 12/M04 A2978 RMK AO2 SLP054 T01171044
KLMO 
17nm SW 
060535Z AUTO 00000KT 10SM CLR 07/M03 A2981 RMK AO2 T00721035
KGXY 
17nm E 
060456Z AUTO 34003KT 10SM CLR 08/M02 A2977 RMK AO2 SLP075 T00781022
TAF
KBJC 
31nm S 
052139Z 0522/0618 33014KT P6SM SCT090 BKN110 FM060200 28011KT P6SM FEW090 BKN110 FM060500 24010KT P6SM FEW220
NOTAMs
Click for the latest NOTAMs
NOTAMs are issued by the DoD/FAA and will open in a separate window not controlled by AirNav.

 

 
 

Would you like to see your business listed on this page?

 If your business provides an interesting product or service to pilots, flight crews, aircraft, or users of the Medical Center of the Rockies Heliport, you should consider listing it here.  To start the listing process, click on the button below
 
Add a business
 

Other Pages about Medical Center of the Rockies Heliport

Update a link
 
Copyright © AirNav, LLC. All rights reserved. Privacy Policy  Contact